sensor_id;sensor_type;location;lat;lon;timestamp;pressure;altitude;pressure_sealevel;temperature;humidity
73870;BME280;64924;42.140;24.762;2024-03-23T00:54:38;99822.97;;;10.17;41.48
73870;BME280;64924;42.140;24.762;2024-03-23T00:57:04;99795.41;;;9.98;41.63
73870;BME280;64924;42.140;24.762;2024-03-23T00:59:29;99797.16;;;9.77;42.25
73870;BME280;64924;42.140;24.762;2024-03-23T01:01:56;99796.41;;;9.53;42.72
73870;BME280;64924;42.140;24.762;2024-03-23T01:04:22;99838.06;;;9.90;42.77
73870;BME280;64924;42.140;24.762;2024-03-23T01:06:47;99825.06;;;9.85;42.56
73870;BME280;64924;42.140;24.762;2024-03-23T01:09:12;99828.78;;;9.84;42.77
73870;BME280;64924;42.140;24.762;2024-03-23T01:11:41;99835.06;;;9.85;43.07
73870;BME280;64924;42.140;24.762;2024-03-23T01:14:06;99836.38;;;9.74;43.74
73870;BME280;64924;42.140;24.762;2024-03-23T01:16:32;99826.69;;;9.42;44.52
73870;BME280;64924;42.140;24.762;2024-03-23T01:18:58;99831.34;;;9.33;44.78
73870;BME280;64924;42.140;24.762;2024-03-23T01:21:23;99769.84;;;8.96;44.89
73870;BME280;64924;42.140;24.762;2024-03-23T01:23:49;99790.38;;;9.14;44.59
73870;BME280;64924;42.140;24.762;2024-03-23T01:26:14;99831.94;;;9.44;44.62
73870;BME280;64924;42.140;24.762;2024-03-23T01:28:40;99830.19;;;9.51;44.68
73870;BME280;64924;42.140;24.762;2024-03-23T01:31:05;99821.34;;;9.34;44.78
73870;BME280;64924;42.140;24.762;2024-03-23T01:33:31;99774.53;;;8.88;44.64
73870;BME280;64924;42.140;24.762;2024-03-23T01:35:56;99832.19;;;9.34;44.58
73870;BME280;64924;42.140;24.762;2024-03-23T01:38:22;99819.00;;;9.31;44.70
73870;BME280;64924;42.140;24.762;2024-03-23T01:40:47;99801.81;;;9.24;44.43
73870;BME280;64924;42.140;24.762;2024-03-23T01:43:13;99830.91;;;9.45;44.75
73870;BME280;64924;42.140;24.762;2024-03-23T01:45:39;99836.44;;;9.51;44.34
73870;BME280;64924;42.140;24.762;2024-03-23T01:48:05;99835.22;;;9.54;44.45
73870;BME280;64924;42.140;24.762;2024-03-23T01:50:31;99831.31;;;9.56;44.51
73870;BME280;64924;42.140;24.762;2024-03-23T01:53:02;99830.38;;;9.64;44.33
73870;BME280;64924;42.140;24.762;2024-03-23T01:55:32;99834.88;;;9.57;44.50
73870;BME280;64924;42.140;24.762;2024-03-23T01:57:57;99832.13;;;9.42;45.04
73870;BME280;64924;42.140;24.762;2024-03-23T02:00:23;99825.25;;;9.31;45.18
73870;BME280;64924;42.140;24.762;2024-03-23T02:02:48;99834.06;;;9.33;45.29
73870;BME280;64924;42.140;24.762;2024-03-23T02:05:14;99815.53;;;9.22;45.42
73870;BME280;64924;42.140;24.762;2024-03-23T02:07:42;99824.69;;;9.21;45.38
73870;BME280;64924;42.140;24.762;2024-03-23T02:10:08;99830.66;;;9.17;45.90
73870;BME280;64924;42.140;24.762;2024-03-23T02:12:40;99822.72;;;9.15;45.94
73870;BME280;64924;42.140;24.762;2024-03-23T02:15:06;99825.19;;;9.25;45.74
73870;BME280;64924;42.140;24.762;2024-03-23T02:17:33;99826.94;;;9.32;45.62
73870;BME280;64924;42.140;24.762;2024-03-23T02:19:59;99841.53;;;9.31;45.35
73870;BME280;64924;42.140;24.762;2024-03-23T02:22:25;99830.03;;;9.29;45.37
73870;BME280;64924;42.140;24.762;2024-03-23T02:24:59;99827.06;;;9.24;45.64
73870;BME280;64924;42.140;24.762;2024-03-23T02:27:24;99831.16;;;9.35;45.71
73870;BME280;64924;42.140;24.762;2024-03-23T02:29:50;99825.84;;;9.42;45.41
73870;BME280;64924;42.140;24.762;2024-03-23T02:32:15;99824.28;;;9.47;45.07
73870;BME280;64924;42.140;24.762;2024-03-23T02:34:41;99825.50;;;9.45;45.20
73870;BME280;64924;42.140;24.762;2024-03-23T02:37:11;99821.59;;;9.62;44.97
73870;BME280;64924;42.140;24.762;2024-03-23T02:39:37;99826.72;;;9.57;45.09
73870;BME280;64924;42.140;24.762;2024-03-23T02:42:02;99826.06;;;9.55;45.20
73870;BME280;64924;42.140;24.762;2024-03-23T02:44:28;99838.78;;;9.54;45.12
73870;BME280;64924;42.140;24.762;2024-03-23T02:46:53;99825.34;;;9.61;45.11
73870;BME280;64924;42.140;24.762;2024-03-23T02:49:19;99832.34;;;9.55;45.22
73870;BME280;64924;42.140;24.762;2024-03-23T02:51:46;99833.84;;;9.58;45.45
73870;BME280;64924;42.140;24.762;2024-03-23T02:54:13;99825.59;;;9.51;45.18
73870;BME280;64924;42.140;24.762;2024-03-23T02:56:39;99826.81;;;9.49;45.37
73870;BME280;64924;42.140;24.762;2024-03-23T02:59:04;99827.91;;;9.39;45.84
73870;BME280;64924;42.140;24.762;2024-03-23T03:01:30;99819.94;;;9.38;45.50
73870;BME280;64924;42.140;24.762;2024-03-23T03:03:56;99816.69;;;9.43;45.47
73870;BME280;64924;42.140;24.762;2024-03-23T03:06:25;99828.50;;;9.50;45.68
73870;BME280;64924;42.140;24.762;2024-03-23T03:08:51;99816.88;;;9.26;46.15
73870;BME280;64924;42.140;24.762;2024-03-23T03:11:16;99823.88;;;9.35;46.01
73870;BME280;64924;42.140;24.762;2024-03-23T03:13:42;99805.63;;;9.29;45.91
73870;BME280;64924;42.140;24.762;2024-03-23T03:16:11;99812.38;;;9.33;46.19
73870;BME280;64924;42.140;24.762;2024-03-23T03:18:37;99805.63;;;9.15;46.20
73870;BME280;64924;42.140;24.762;2024-03-23T03:21:03;99812.06;;;9.28;46.08
73870;BME280;64924;42.140;24.762;2024-03-23T03:23:30;99815.75;;;9.35;45.86
73870;BME280;64924;42.140;24.762;2024-03-23T03:25:56;99806.75;;;9.35;45.85
73870;BME280;64924;42.140;24.762;2024-03-23T03:28:22;99766.81;;;9.14;45.51
73870;BME280;64924;42.140;24.762;2024-03-23T03:30:47;99812.13;;;9.43;45.73
73870;BME280;64924;42.140;24.762;2024-03-23T03:33:13;99805.56;;;9.37;45.65
73870;BME280;64924;42.140;24.762;2024-03-23T03:35:38;99811.81;;;9.38;45.99
73870;BME280;64924;42.140;24.762;2024-03-23T03:38:04;99814.53;;;9.38;45.75
73870;BME280;64924;42.140;24.762;2024-03-23T03:40:29;99816.59;;;9.36;45.44
73870;BME280;64924;42.140;24.762;2024-03-23T03:42:55;99817.59;;;9.35;45.84
73870;BME280;64924;42.140;24.762;2024-03-23T03:45:21;99828.25;;;9.22;46.13
73870;BME280;64924;42.140;24.762;2024-03-23T03:47:46;99827.97;;;9.17;45.99
73870;BME280;64924;42.140;24.762;2024-03-23T03:50:12;99821.69;;;9.16;45.87
73870;BME280;64924;42.140;24.762;2024-03-23T03:52:37;99781.63;;;8.89;45.91
73870;BME280;64924;42.140;24.762;2024-03-23T03:55:03;99837.97;;;9.16;45.44
73870;BME280;64924;42.140;24.762;2024-03-23T03:57:29;99834.09;;;9.11;45.79
73870;BME280;64924;42.140;24.762;2024-03-23T03:59:54;99835.78;;;9.12;45.48
73870;BME280;64924;42.140;24.762;2024-03-23T04:02:20;99837.66;;;9.11;44.86
73870;BME280;64924;42.140;24.762;2024-03-23T04:04:45;99833.31;;;9.02;45.25
73870;BME280;64924;42.140;24.762;2024-03-23T04:07:11;99836.03;;;9.02;44.95
73870;BME280;64924;42.140;24.762;2024-03-23T04:09:36;99825.91;;;8.96;44.94
73870;BME280;64924;42.140;24.762;2024-03-23T04:12:02;99839.88;;;9.08;44.91
73870;BME280;64924;42.140;24.762;2024-03-23T04:14:27;99841.75;;;9.07;44.97
73870;BME280;64924;42.140;24.762;2024-03-23T04:16:53;99847.91;;;9.01;45.15
73870;BME280;64924;42.140;24.762;2024-03-23T04:19:18;99837.91;;;9.01;45.01
73870;BME280;64924;42.140;24.762;2024-03-23T04:21:44;99809.81;;;8.80;45.04
73870;BME280;64924;42.140;24.762;2024-03-23T04:24:10;99842.78;;;9.06;44.65
73870;BME280;64924;42.140;24.762;2024-03-23T04:26:43;99820.84;;;8.93;44.69
73870;BME280;64924;42.140;24.762;2024-03-23T04:29:08;99849.94;;;8.99;44.62
73870;BME280;64924;42.140;24.762;2024-03-23T04:31:34;99854.34;;;9.00;44.71
73870;BME280;64924;42.140;24.762;2024-03-23T04:34:01;99838.56;;;9.03;44.95
73870;BME280;64924;42.140;24.762;2024-03-23T04:36:26;99855.69;;;9.42;44.27
73870;BME280;64924;42.140;24.762;2024-03-23T04:38:52;99855.72;;;9.71;43.42
73870;BME280;64924;42.140;24.762;2024-03-23T04:41:17;99844.78;;;10.09;42.84
73870;BME280;64924;42.140;24.762;2024-03-23T04:43:43;99853.84;;;10.45;42.09
73870;BME280;64924;42.140;24.762;2024-03-23T04:46:09;99862.22;;;11.01;40.74
73870;BME280;64924;42.140;24.762;2024-03-23T04:48:34;99854.78;;;11.59;39.72
73870;BME280;64924;42.140;24.762;2024-03-23T04:51:00;99857.44;;;12.08;38.62
73870;BME280;64924;42.140;24.762;2024-03-23T04:53:25;99809.19;;;12.43;37.17
73870;BME280;64924;42.140;24.762;2024-03-23T04:55:56;99834.78;;;13.16;36.36
73870;BME280;64924;42.140;24.762;2024-03-23T04:58:23;99839.19;;;13.70;35.48
73870;BME280;64924;42.140;24.762;2024-03-23T05:00:57;99834.38;;;14.36;33.87
73870;BME280;64924;42.140;24.762;2024-03-23T05:03:23;99844.16;;;14.70;32.86
73870;BME280;64924;42.140;24.762;2024-03-23T05:05:49;99832.69;;;14.87;32.81
73870;BME280;64924;42.140;24.762;2024-03-23T05:08:15;99826.22;;;15.13;32.04
73870;BME280;64924;42.140;24.762;2024-03-23T05:10:42;99808.56;;;15.33;31.37
73870;BME280;64924;42.140;24.762;2024-03-23T05:13:08;99844.66;;;15.98;30.78
73870;BME280;64924;42.140;24.762;2024-03-23T05:15:33;99844.22;;;16.38;30.09
73870;BME280;64924;42.140;24.762;2024-03-23T05:17:59;99823.47;;;16.60;29.68
73870;BME280;64924;42.140;24.762;2024-03-23T05:20:24;99829.91;;;17.14;29.21
73870;BME280;64924;42.140;24.762;2024-03-23T05:22:50;99828.19;;;17.55;28.06
73870;BME280;64924;42.140;24.762;2024-03-23T05:25:18;99829.59;;;17.76;27.71
73870;BME280;64924;42.140;24.762;2024-03-23T05:27:48;99824.38;;;17.56;27.58
73870;BME280;64924;42.140;24.762;2024-03-23T05:30:13;99824.38;;;17.56;27.61
73870;BME280;64924;42.140;24.762;2024-03-23T05:32:39;99782.81;;;17.41;27.61
73870;BME280;64924;42.140;24.762;2024-03-23T05:35:07;99825.75;;;17.65;27.55
73870;BME280;64924;42.140;24.762;2024-03-23T05:37:33;99825.28;;;17.80;27.64
73870;BME280;64924;42.140;24.762;2024-03-23T05:39:59;99834.34;;;18.03;27.44
73870;BME280;64924;42.140;24.762;2024-03-23T05:42:25;99831.56;;;18.27;26.72
73870;BME280;64924;42.140;24.762;2024-03-23T05:44:50;99820.88;;;18.54;26.36
73870;BME280;64924;42.140;24.762;2024-03-23T05:47:16;99782.13;;;18.84;26.31
73870;BME280;64924;42.140;24.762;2024-03-23T05:49:45;99825.31;;;19.57;25.76
73870;BME280;64924;42.140;24.762;2024-03-23T05:52:11;99818.31;;;20.05;24.63
73870;BME280;64924;42.140;24.762;2024-03-23T05:54:37;99821.03;;;20.21;24.33
73870;BME280;64924;42.140;24.762;2024-03-23T05:57:05;99806.22;;;20.27;23.61
73870;BME280;64924;42.140;24.762;2024-03-23T05:59:34;99832.19;;;20.48;23.77
73870;BME280;64924;42.140;24.762;2024-03-23T06:01:59;99784.47;;;20.31;23.86
73870;BME280;64924;42.140;24.762;2024-03-23T06:04:25;99810.03;;;20.92;23.29
73870;BME280;64924;42.140;24.762;2024-03-23T06:06:51;99826.44;;;21.25;22.80
73870;BME280;64924;42.140;24.762;2024-03-23T06:09:17;99807.81;;;21.16;22.66
73870;BME280;64924;42.140;24.762;2024-03-23T06:11:43;99815.69;;;21.29;22.43
73870;BME280;64924;42.140;24.762;2024-03-23T06:14:08;99817.25;;;21.47;22.52
73870;BME280;64924;42.140;24.762;2024-03-23T06:16:34;99786.44;;;21.33;22.28
73870;BME280;64924;42.140;24.762;2024-03-23T06:18:59;99809.59;;;21.27;22.42
73870;BME280;64924;42.140;24.762;2024-03-23T06:21:25;99818.31;;;21.41;22.14
73870;BME280;64924;42.140;24.762;2024-03-23T06:23:52;99776.41;;;21.59;22.13
73870;BME280;64924;42.140;24.762;2024-03-23T06:26:18;99795.13;;;21.84;22.07
73870;BME280;64924;42.140;24.762;2024-03-23T06:28:44;99819.44;;;22.19;21.62
73870;BME280;64924;42.140;24.762;2024-03-23T06:31:10;99813.28;;;22.69;21.35
73870;BME280;64924;42.140;24.762;2024-03-23T06:33:36;99810.09;;;22.97;20.75
73870;BME280;64924;42.140;24.762;2024-03-23T06:36:02;99771.59;;;23.01;20.50
73870;BME280;64924;42.140;24.762;2024-03-23T06:38:28;99809.88;;;23.50;20.18
73870;BME280;64924;42.140;24.762;2024-03-23T06:40:54;99814.63;;;23.54;20.00
73870;BME280;64924;42.140;24.762;2024-03-23T06:43:19;99814.34;;;23.61;19.75
73870;BME280;64924;42.140;24.762;2024-03-23T06:45:52;99819.06;;;23.71;19.46
73870;BME280;64924;42.140;24.762;2024-03-23T06:48:18;99807.06;;;23.14;20.15
73870;BME280;64924;42.140;24.762;2024-03-23T06:50:44;99804.69;;;22.55;20.47
73870;BME280;64924;42.140;24.762;2024-03-23T06:53:10;99816.34;;;22.73;20.64
73870;BME280;64924;42.140;24.762;2024-03-23T06:55:35;99781.16;;;22.63;20.40
73870;BME280;64924;42.140;24.762;2024-03-23T06:58:01;99813.19;;;23.16;20.01
73870;BME280;64924;42.140;24.762;2024-03-23T07:00:26;99772.13;;;22.88;20.15
73870;BME280;64924;42.140;24.762;2024-03-23T07:02:51;99808.78;;;23.30;19.96
73870;BME280;64924;42.140;24.762;2024-03-23T07:05:17;99773.25;;;23.12;20.04
73870;BME280;64924;42.140;24.762;2024-03-23T07:07:43;99804.88;;;23.21;19.94
73870;BME280;64924;42.140;24.762;2024-03-23T07:10:08;99791.31;;;23.35;19.77
73870;BME280;64924;42.140;24.762;2024-03-23T07:12:34;99806.56;;;23.32;19.92
73870;BME280;64924;42.140;24.762;2024-03-23T07:14:59;99802.66;;;23.28;19.72
73870;BME280;64924;42.140;24.762;2024-03-23T07:17:25;99797.69;;;23.30;19.98
73870;BME280;64924;42.140;24.762;2024-03-23T07:19:50;99797.13;;;23.39;19.88
73870;BME280;64924;42.140;24.762;2024-03-23T07:22:16;99798.53;;;23.36;19.99
73870;BME280;64924;42.140;24.762;2024-03-23T07:24:41;99789.34;;;23.15;19.90
73870;BME280;64924;42.140;24.762;2024-03-23T07:27:07;99804.88;;;23.42;19.72
73870;BME280;64924;42.140;24.762;2024-03-23T07:29:35;99761.06;;;23.13;19.94
73870;BME280;64924;42.140;24.762;2024-03-23T07:32:01;99796.25;;;23.02;20.16
73870;BME280;64924;42.140;24.762;2024-03-23T07:34:26;99783.50;;;23.07;20.14
73870;BME280;64924;42.140;24.762;2024-03-23T07:36:52;99785.75;;;23.45;19.72
73870;BME280;64924;42.140;24.762;2024-03-23T07:39:17;99783.84;;;23.61;19.62
73870;BME280;64924;42.140;24.762;2024-03-23T07:41:46;99775.19;;;23.93;19.41
73870;BME280;64924;42.140;24.762;2024-03-23T07:44:11;99771.22;;;24.19;19.00
73870;BME280;64924;42.140;24.762;2024-03-23T07:46:37;99760.28;;;24.53;18.66
73870;BME280;64924;42.140;24.762;2024-03-23T07:49:04;99746.25;;;24.79;18.33
73870;BME280;64924;42.140;24.762;2024-03-23T07:51:29;99753.31;;;24.56;18.33
73870;BME280;64924;42.140;24.762;2024-03-23T07:53:55;99773.63;;;24.51;18.53
73870;BME280;64924;42.140;24.762;2024-03-23T07:56:20;99756.06;;;24.66;18.53
73870;BME280;64924;42.140;24.762;2024-03-23T07:58:47;99762.84;;;24.89;18.49
73870;BME280;64924;42.140;24.762;2024-03-23T08:01:16;99756.47;;;24.88;18.27
73870;BME280;64924;42.140;24.762;2024-03-23T08:03:45;99751.63;;;25.09;18.32
73870;BME280;64924;42.140;24.762;2024-03-23T08:06:18;99748.66;;;25.35;18.14
73870;BME280;64924;42.140;24.762;2024-03-23T08:08:54;99749.72;;;25.39;17.83
73870;BME280;64924;42.140;24.762;2024-03-23T08:11:31;99754.78;;;24.92;18.04
73870;BME280;64924;42.140;24.762;2024-03-23T08:13:59;99745.03;;;24.95;18.05
73870;BME280;64924;42.140;24.762;2024-03-23T08:16:26;99745.94;;;24.85;18.18
73870;BME280;64924;42.140;24.762;2024-03-23T08:18:52;99746.47;;;24.38;18.49
73870;BME280;64924;42.140;24.762;2024-03-23T08:21:18;99746.16;;;24.45;18.60
73870;BME280;64924;42.140;24.762;2024-03-23T08:23:43;99734.38;;;24.63;18.19
73870;BME280;64924;42.140;24.762;2024-03-23T08:26:10;99745.44;;;24.78;18.09
73870;BME280;64924;42.140;24.762;2024-03-23T08:28:36;99740.38;;;24.36;17.85
73870;BME280;64924;42.140;24.762;2024-03-23T08:31:12;99738.84;;;23.89;18.39
73870;BME280;64924;42.140;24.762;2024-03-23T08:33:38;99739.44;;;23.51;18.74
73870;BME280;64924;42.140;24.762;2024-03-23T08:36:06;99727.81;;;23.39;19.36
73870;BME280;64924;42.140;24.762;2024-03-23T08:38:32;99726.41;;;23.31;19.16
73870;BME280;64924;42.140;24.762;2024-03-23T08:43:27;99720.59;;;22.92;19.65
73870;BME280;64924;42.140;24.762;2024-03-23T08:45:53;99714.75;;;22.83;20.17
73870;BME280;64924;42.140;24.762;2024-03-23T08:48:19;99723.09;;;22.93;19.75
73870;BME280;64924;42.140;24.762;2024-03-23T08:53:29;99719.25;;;21.69;20.55
73870;BME280;64924;42.140;24.762;2024-03-23T08:55:56;99711.44;;;21.61;21.00
73870;BME280;64924;42.140;24.762;2024-03-23T08:58:23;99672.88;;;21.87;20.93
73870;BME280;64924;42.140;24.762;2024-03-23T09:00:50;99664.34;;;21.98;20.45
73870;BME280;64924;42.140;24.762;2024-03-23T09:03:15;99696.88;;;22.23;21.12
73870;BME280;64924;42.140;24.762;2024-03-23T09:05:41;99692.69;;;22.21;20.33
73870;BME280;64924;42.140;24.762;2024-03-23T09:08:07;99696.06;;;22.38;20.11
73870;BME280;64924;42.140;24.762;2024-03-23T09:10:38;99685.13;;;22.94;20.01
73870;BME280;64924;42.140;24.762;2024-03-23T09:13:04;99684.53;;;23.02;19.77
73870;BME280;64924;42.140;24.762;2024-03-23T09:15:30;99681.53;;;22.93;19.91
73870;BME280;64924;42.140;24.762;2024-03-23T09:17:56;99669.06;;;22.96;20.23
73870;BME280;64924;42.140;24.762;2024-03-23T09:20:23;99678.19;;;22.86;20.33
73870;BME280;64924;42.140;24.762;2024-03-23T09:22:49;99674.56;;;22.81;20.17
73870;BME280;64924;42.140;24.762;2024-03-23T09:25:14;99662.25;;;22.21;20.61
73870;BME280;64924;42.140;24.762;2024-03-23T09:27:40;99673.53;;;21.15;22.34
73870;BME280;64924;42.140;24.762;2024-03-23T09:30:06;99658.28;;;20.80;22.56
73870;BME280;64924;42.140;24.762;2024-03-23T09:32:31;99655.09;;;20.61;22.66
73870;BME280;64924;42.140;24.762;2024-03-23T09:34:57;99661.88;;;20.00;23.29
73870;BME280;64924;42.140;24.762;2024-03-23T09:37:22;99661.56;;;19.96;24.07
73870;BME280;64924;42.140;24.762;2024-03-23T09:39:48;99656.72;;;20.09;24.08
73870;BME280;64924;42.140;24.762;2024-03-23T09:42:13;99625.50;;;19.59;24.48
73870;BME280;64924;42.140;24.762;2024-03-23T09:44:40;99638.59;;;19.30;25.23
73870;BME280;64924;42.140;24.762;2024-03-23T09:47:06;99646.06;;;19.52;24.96
73870;BME280;64924;42.140;24.762;2024-03-23T09:49:34;99644.06;;;18.92;25.78
73870;BME280;64924;42.140;24.762;2024-03-23T09:52:02;99647.91;;;18.91;25.75
73870;BME280;64924;42.140;24.762;2024-03-23T09:54:28;99642.06;;;18.87;25.85
73870;BME280;64924;42.140;24.762;2024-03-23T09:56:53;99633.47;;;18.84;25.99
73870;BME280;64924;42.140;24.762;2024-03-23T09:59:19;99626.84;;;18.51;26.46
73870;BME280;64924;42.140;24.762;2024-03-23T10:01:44;99622.22;;;18.40;26.94
73870;BME280;64924;42.140;24.762;2024-03-23T10:04:10;99634.50;;;18.21;27.22
73870;BME280;64924;42.140;24.762;2024-03-23T10:06:35;99606.00;;;18.27;26.93
73870;BME280;64924;42.140;24.762;2024-03-23T10:09:02;99620.75;;;18.49;26.89
73870;BME280;64924;42.140;24.762;2024-03-23T10:11:27;99605.97;;;18.38;26.23
73870;BME280;64924;42.140;24.762;2024-03-23T10:13:54;99605.59;;;18.80;26.02
73870;BME280;64924;42.140;24.762;2024-03-23T10:16:23;99604.22;;;18.99;25.65
73870;BME280;64924;42.140;24.762;2024-03-23T10:18:49;99605.75;;;18.74;25.83
73870;BME280;64924;42.140;24.762;2024-03-23T10:21:16;99604.22;;;18.49;26.15
73870;BME280;64924;42.140;24.762;2024-03-23T10:23:42;99603.72;;;18.52;26.25
73870;BME280;64924;42.140;24.762;2024-03-23T10:26:21;99581.31;;;18.77;25.81
73870;BME280;64924;42.140;24.762;2024-03-23T10:31:19;99580.66;;;18.87;25.32
73870;BME280;64924;42.140;24.762;2024-03-23T10:33:54;99536.69;;;18.75;25.40
73870;BME280;64924;42.140;24.762;2024-03-23T10:36:21;99565.44;;;19.01;25.67
73870;BME280;64924;42.140;24.762;2024-03-23T10:38:50;99562.13;;;18.82;26.55
73870;BME280;64924;42.140;24.762;2024-03-23T10:41:17;99567.06;;;18.80;26.31
73870;BME280;64924;42.140;24.762;2024-03-23T10:43:47;99565.28;;;18.41;26.56
73870;BME280;64924;42.140;24.762;2024-03-23T10:46:13;99512.59;;;18.15;26.54
73870;BME280;64924;42.140;24.762;2024-03-23T10:48:38;99550.69;;;18.57;26.53
73870;BME280;64924;42.140;24.762;2024-03-23T10:51:07;99555.19;;;18.46;26.51
73870;BME280;64924;42.140;24.762;2024-03-23T10:53:36;99545.13;;;18.52;26.41
73870;BME280;64924;42.140;24.762;2024-03-23T10:56:05;99536.25;;;18.33;26.38
73870;BME280;64924;42.140;24.762;2024-03-23T10:58:45;99530.59;;;18.40;25.79
73870;BME280;64924;42.140;24.762;2024-03-23T11:01:12;99523.53;;;18.60;25.81
73870;BME280;64924;42.140;24.762;2024-03-23T11:03:39;99520.59;;;18.84;26.08
73870;BME280;64924;42.140;24.762;2024-03-23T11:06:07;99508.16;;;18.81;26.26
73870;BME280;64924;42.140;24.762;2024-03-23T11:08:40;99508.31;;;18.91;25.49
73870;BME280;64924;42.140;24.762;2024-03-23T11:11:20;99496.66;;;19.06;24.81
73870;BME280;64924;42.140;24.762;2024-03-23T11:13:50;99487.97;;;19.14;25.61
73870;BME280;64924;42.140;24.762;2024-03-23T11:16:28;99482.50;;;19.41;25.61
73870;BME280;64924;42.140;24.762;2024-03-23T11:19:33;99476.09;;;19.57;24.52
73870;BME280;64924;42.140;24.762;2024-03-23T11:22:00;99468.13;;;19.39;24.28
73870;BME280;64924;42.140;24.762;2024-03-23T11:24:25;99437.56;;;18.92;24.92
73870;BME280;64924;42.140;24.762;2024-03-23T11:26:51;99468.63;;;19.09;25.05
73870;BME280;64924;42.140;24.762;2024-03-23T11:29:20;99451.31;;;19.14;24.77
73870;BME280;64924;42.140;24.762;2024-03-23T11:31:50;99458.31;;;19.21;24.58
73870;BME280;64924;42.140;24.762;2024-03-23T11:34:16;99444.94;;;19.35;24.52
73870;BME280;64924;42.140;24.762;2024-03-23T11:36:43;99433.28;;;19.50;24.14
73870;BME280;64924;42.140;24.762;2024-03-23T11:39:13;99428.91;;;19.81;24.23
73870;BME280;64924;42.140;24.762;2024-03-23T11:44:21;99429.22;;;19.84;23.34
73870;BME280;64924;42.140;24.762;2024-03-23T11:46:50;99382.84;;;19.49;23.79
73870;BME280;64924;42.140;24.762;2024-03-23T11:49:27;99419.59;;;19.87;24.12
73870;BME280;64924;42.140;24.762;2024-03-23T11:51:56;99401.13;;;19.55;24.57
73870;BME280;64924;42.140;24.762;2024-03-23T11:54:25;99394.78;;;19.33;24.60
73870;BME280;64924;42.140;24.762;2024-03-23T11:56:58;99398.94;;;19.35;24.80
73870;BME280;64924;42.140;24.762;2024-03-23T11:59:34;99394.13;;;19.21;25.01
73870;BME280;64924;42.140;24.762;2024-03-23T12:02:00;99395.00;;;19.26;24.87
73870;BME280;64924;42.140;24.762;2024-03-23T12:04:29;99391.56;;;19.41;24.42
73870;BME280;64924;42.140;24.762;2024-03-23T12:07:21;99351.53;;;19.33;24.91
73870;BME280;64924;42.140;24.762;2024-03-23T12:10:03;99380.13;;;19.81;24.03
73870;BME280;64924;42.140;24.762;2024-03-23T12:12:29;99362.63;;;19.97;23.58
73870;BME280;64924;42.140;24.762;2024-03-23T12:15:06;99367.59;;;20.38;22.82
73870;BME280;64924;42.140;24.762;2024-03-23T12:17:32;99362.03;;;20.32;22.84
73870;BME280;64924;42.140;24.762;2024-03-23T12:19:58;99354.59;;;19.96;23.01
73870;BME280;64924;42.140;24.762;2024-03-23T12:22:24;99360.34;;;19.89;23.05
73870;BME280;64924;42.140;24.762;2024-03-23T12:24:50;99349.69;;;19.71;23.18
73870;BME280;64924;42.140;24.762;2024-03-23T12:27:16;99349.00;;;19.86;23.16
73870;BME280;64924;42.140;24.762;2024-03-23T12:29:42;99332.59;;;19.69;23.21
73870;BME280;64924;42.140;24.762;2024-03-23T12:32:11;99329.56;;;19.70;23.01
73870;BME280;64924;42.140;24.762;2024-03-23T12:34:36;99340.44;;;19.82;22.66
73870;BME280;64924;42.140;24.762;2024-03-23T12:37:02;99332.25;;;19.92;23.04
73870;BME280;64924;42.140;24.762;2024-03-23T12:39:27;99320.47;;;20.02;22.76
73870;BME280;64924;42.140;24.762;2024-03-23T12:41:53;99324.94;;;20.18;22.64
73870;BME280;64924;42.140;24.762;2024-03-23T12:44:18;99316.44;;;20.25;22.16
73870;BME280;64924;42.140;24.762;2024-03-23T12:46:44;99319.78;;;20.27;22.40
73870;BME280;64924;42.140;24.762;2024-03-23T12:49:10;99315.78;;;20.08;22.10
73870;BME280;64924;42.140;24.762;2024-03-23T12:51:39;99303.66;;;20.09;22.67
73870;BME280;64924;42.140;24.762;2024-03-23T12:54:05;99306.38;;;19.98;22.34
73870;BME280;64924;42.140;24.762;2024-03-23T12:56:31;99309.56;;;19.85;22.38
73870;BME280;64924;42.140;24.762;2024-03-23T12:58:56;99292.72;;;19.82;22.08
73870;BME280;64924;42.140;24.762;2024-03-23T13:01:25;99297.00;;;19.99;22.34
73870;BME280;64924;42.140;24.762;2024-03-23T13:03:51;99290.38;;;20.00;22.13
73870;BME280;64924;42.140;24.762;2024-03-23T13:06:18;99288.72;;;19.99;21.03
73870;BME280;64924;42.140;24.762;2024-03-23T13:08:44;99244.22;;;19.86;21.08
73870;BME280;64924;42.140;24.762;2024-03-23T13:11:10;99276.06;;;20.09;21.05
73870;BME280;64924;42.140;24.762;2024-03-23T13:13:38;99273.50;;;19.92;22.60
73870;BME280;64924;42.140;24.762;2024-03-23T13:16:05;99280.94;;;19.91;22.03
73870;BME280;64924;42.140;24.762;2024-03-23T13:18:31;99269.53;;;19.78;22.08
73870;BME280;64924;42.140;24.762;2024-03-23T13:20:57;99270.34;;;19.73;21.71
73870;BME280;64924;42.140;24.762;2024-03-23T13:23:22;99265.56;;;19.58;21.05
73870;BME280;64924;42.140;24.762;2024-03-23T13:25:55;99270.25;;;19.58;21.57
73870;BME280;64924;42.140;24.762;2024-03-23T13:28:21;99259.81;;;19.65;21.99
73870;BME280;64924;42.140;24.762;2024-03-23T13:30:54;99256.28;;;19.75;22.38
73870;BME280;64924;42.140;24.762;2024-03-23T13:33:20;99253.06;;;19.88;22.45
73870;BME280;64924;42.140;24.762;2024-03-23T13:35:55;99261.69;;;19.96;22.25
73870;BME280;64924;42.140;24.762;2024-03-23T13:38:24;99243.03;;;19.72;22.53
73870;BME280;64924;42.140;24.762;2024-03-23T13:40:56;99254.88;;;19.72;22.27
73870;BME280;64924;42.140;24.762;2024-03-23T13:43:23;99238.16;;;19.47;21.37
73870;BME280;64924;42.140;24.762;2024-03-23T13:45:53;99249.75;;;19.49;21.50
73870;BME280;64924;42.140;24.762;2024-03-23T13:48:23;99234.53;;;19.41;22.02
73870;BME280;64924;42.140;24.762;2024-03-23T13:51:02;99230.09;;;19.40;22.59
73870;BME280;64924;42.140;24.762;2024-03-23T13:53:27;99230.88;;;19.30;22.10
73870;BME280;64924;42.140;24.762;2024-03-23T13:55:53;99218.63;;;19.16;21.39